Time;durP1;ratioP1;P1;durP2;ratioP2;P2;SDS_P1;SDS_P2;PMS_P1;PMS_P2;Temp;Humidity;BMP_temperature;BMP_pressure;BME280_temperature;BME280_humidity;BME280_pressure;Samples;Min_cycle;Max_cycle;Signal;HPM_P1;HPM_P2
2021/09/02 00:00:48;;;;;;;4.28;3.75;;;;;;;;;;5113299;28;20035;-69
2021/09/02 00:03:14;;;;;;;3.95;3.40;;;;;;;;;;5113174;28;20537;-68
2021/09/02 00:05:39;;;;;;;3.50;3.25;;;;;;;;;;5113667;28;20043;-69
2021/09/02 00:08:05;;;;;;;4.35;3.40;;;;;;;;;;5111971;28;20111;-69
2021/09/02 00:10:30;;;;;;;3.38;3.17;;;;;;;;;;5113651;28;20103;-69
2021/09/02 00:12:56;;;;;;;3.63;3.33;;;;;;;;;;5117323;28;20357;-68
2021/09/02 00:15:22;;;;;;;4.10;3.70;;;;;;;;;;5117106;28;20019;-67
2021/09/02 00:17:47;;;;;;;4.18;3.88;;;;;;;;;;5116910;28;20016;-67
2021/09/02 00:20:13;;;;;;;5.45;4.60;;;;;;;;;;5117182;28;20031;-67
2021/09/02 00:22:39;;;;;;;5.18;4.40;;;;;;;;;;5116662;28;20027;-67
2021/09/02 00:25:05;;;;;;;4.57;4.18;;;;;;;;;;5116663;28;20024;-67
2021/09/02 00:27:31;;;;;;;6.47;4.50;;;;;;;;;;5116709;28;20012;-67
2021/09/02 00:29:56;;;;;;;6.00;4.03;;;;;;;;;;5116659;28;20106;-67
2021/09/02 00:32:21;;;;;;;5.57;3.80;;;;;;;;;;5115364;28;20019;-68
2021/09/02 00:34:47;;;;;;;4.45;4.05;;;;;;;;;;5116813;28;20051;-68
2021/09/02 00:37:12;;;;;;;5.57;4.80;;;;;;;;;;5116576;28;20047;-68
2021/09/02 00:39:38;;;;;;;4.30;3.90;;;;;;;;;;5116925;28;20036;-67
2021/09/02 00:42:03;;;;;;;5.88;3.85;;;;;;;;;;5116735;28;20019;-68
2021/09/02 00:44:32;;;;;;;4.20;3.90;;;;;;;;;;5116504;28;20031;-68
2021/09/02 00:46:57;;;;;;;8.35;3.92;;;;;;;;;;5116208;28;20097;-67
2021/09/02 00:49:23;;;;;;;5.13;4.13;;;;;;;;;;5115067;28;20458;-67
2021/09/02 00:51:48;;;;;;;4.47;4.07;;;;;;;;;;5116239;27;20030;-67
2021/09/02 00:54:13;;;;;;;4.65;4.25;;;;;;;;;;5116352;28;20027;-65
2021/09/02 00:56:39;;;;;;;4.43;4.03;;;;;;;;;;5116091;28;20106;-64
2021/09/02 00:59:04;;;;;;;5.05;4.28;;;;;;;;;;5116186;28;20070;-64
2021/09/02 01:01:30;;;;;;;6.13;4.45;;;;;;;;;;5116177;28;20031;-64
2021/09/02 01:03:55;;;;;;;5.30;4.18;;;;;;;;;;5115293;28;20036;-65
2021/09/02 01:06:21;;;;;;;6.03;4.63;;;;;;;;;;5116441;28;20023;-64
2021/09/02 01:08:48;;;;;;;5.38;3.70;;;;;;;;;;5115975;28;20088;-64
2021/09/02 01:11:14;;;;;;;4.35;3.90;;;;;;;;;;5114885;28;20016;-64
2021/09/02 01:13:39;;;;;;;4.70;3.75;;;;;;;;;;5115800;28;20080;-64
2021/09/02 01:16:05;;;;;;;5.60;4.32;;;;;;;;;;5115840;28;20107;-64
2021/09/02 01:18:30;;;;;;;4.18;3.88;;;;;;;;;;5115785;28;20477;-64
2021/09/02 01:20:56;;;;;;;4.55;3.90;;;;;;;;;;5115891;28;20381;-64
2021/09/02 01:23:21;;;;;;;4.90;4.40;;;;;;;;;;5115621;28;20112;-64
2021/09/02 01:25:47;;;;;;;4.63;4.05;;;;;;;;;;5114479;28;20081;-64
2021/09/02 01:28:13;;;;;;;5.20;4.00;;;;;;;;;;5115529;28;20030;-64
2021/09/02 01:30:40;;;;;;;5.45;4.28;;;;;;;;;;5115513;28;20045;-64
2021/09/02 01:33:08;;;;;;;4.53;3.80;;;;;;;;;;5115505;28;20477;-64
2021/09/02 01:35:33;;;;;;;3.92;3.60;;;;;;;;;;5115136;28;20024;-64
2021/09/02 01:38:04;;;;;;;3.80;3.50;;;;;;;;;;5115288;28;20051;-64
2021/09/02 01:40:31;;;;;;;4.30;3.70;;;;;;;;;;5114745;28;20031;-63
2021/09/02 01:42:57;;;;;;;4.20;3.80;;;;;;;;;;5115476;28;20043;-63
2021/09/02 01:45:23;;;;;;;4.57;3.88;;;;;;;;;;5115055;28;20442;-63
2021/09/02 01:47:48;;;;;;;3.90;3.58;;;;;;;;;;5115188;28;20058;-64
2021/09/02 01:50:18;;;;;;;5.18;3.53;;;;;;;;;;5115020;28;20020;-64
2021/09/02 01:52:44;;;;;;;4.57;3.93;;;;;;;;;;5115318;28;20018;-64
2021/09/02 01:55:10;;;;;;;3.90;3.22;;;;;;;;;;5115149;28;20040;-63
2021/09/02 01:57:35;;;;;;;3.97;3.67;;;;;;;;;;5115032;28;20545;-64
2021/09/02 02:00:03;;;;;;;4.43;3.88;;;;;;;;;;5114992;28;20028;-64
2021/09/02 02:02:29;;;;;;;3.80;3.50;;;;;;;;;;5114782;28;20583;-64
2021/09/02 02:04:55;;;;;;;4.13;3.42;;;;;;;;;;5114595;28;20134;-69
2021/09/02 02:07:20;;;;;;;3.38;3.08;;;;;;;;;;5115117;27;20380;-69
2021/09/02 02:09:46;;;;;;;3.35;2.92;;;;;;;;;;5114893;28;20042;-69
2021/09/02 02:12:11;;;;;;;3.08;2.78;;;;;;;;;;5115085;28;20053;-69
2021/09/02 02:14:37;;;;;;;2.80;2.60;;;;;;;;;;5115093;28;20032;-69
2021/09/02 02:17:02;;;;;;;3.05;2.75;;;;;;;;;;5114510;28;20020;-69
2021/09/02 02:19:28;;;;;;;2.30;2.15;;;;;;;;;;5114657;28;20076;-69
2021/09/02 02:21:53;;;;;;;3.38;2.72;;;;;;;;;;5114522;28;20047;-69
2021/09/02 02:24:19;;;;;;;3.03;2.80;;;;;;;;;;5114367;28;20027;-71
2021/09/02 02:26:44;;;;;;;2.72;2.55;;;;;;;;;;5114551;28;20477;-71
2021/09/02 02:29:10;;;;;;;3.60;3.30;;;;;;;;;;5114593;28;20030;-71
2021/09/02 02:31:35;;;;;;;3.92;3.10;;;;;;;;;;5114585;28;20018;-70
2021/09/02 02:34:01;;;;;;;3.80;3.50;;;;;;;;;;5113969;28;20023;-70
2021/09/02 02:36:26;;;;;;;3.58;3.13;;;;;;;;;;5114180;28;20393;-70
2021/09/02 02:38:53;;;;;;;3.42;3.20;;;;;;;;;;5114343;28;20043;-71
2021/09/02 02:41:18;;;;;;;3.70;3.40;;;;;;;;;;5114353;28;20542;-63
2021/09/02 02:43:44;;;;;;;3.60;3.30;;;;;;;;;;5113883;28;20053;-70
2021/09/02 02:46:09;;;;;;;4.72;3.53;;;;;;;;;;5114064;28;20016;-70
2021/09/02 02:48:34;;;;;;;4.00;3.63;;;;;;;;;;5114125;28;20394;-70
2021/09/02 02:51:00;;;;;;;4.10;3.70;;;;;;;;;;5113991;28;20080;-70
2021/09/02 02:53:27;;;;;;;3.88;3.58;;;;;;;;;;5114184;28;20032;-70
2021/09/02 02:55:52;;;;;;;4.82;3.78;;;;;;;;;;5113988;28;20106;-70
2021/09/02 02:58:17;;;;;;;4.20;3.80;;;;;;;;;;5114418;28;20062;-69
2021/09/02 03:00:43;;;;;;;4.00;3.65;;;;;;;;;;5114123;28;20019;-69
2021/09/02 03:03:08;;;;;;;5.00;4.05;;;;;;;;;;5114058;28;20059;-68
2021/09/02 03:05:34;;;;;;;4.10;3.80;;;;;;;;;;5114273;28;20521;-68
2021/09/02 03:08:02;;;;;;;3.97;3.42;;;;;;;;;;5113128;28;20339;-69
2021/09/02 03:10:29;;;;;;;3.95;3.58;;;;;;;;;;5114103;28;20039;-68
2021/09/02 03:12:54;;;;;;;4.90;3.78;;;;;;;;;;5114151;28;20077;-68
2021/09/02 03:15:20;;;;;;;4.05;3.45;;;;;;;;;;5114128;28;20366;-68
2021/09/02 03:17:46;;;;;;;4.45;3.58;;;;;;;;;;5113970;28;20089;-68
2021/09/02 03:20:11;;;;;;;3.20;3.00;;;;;;;;;;5113867;28;20016;-71
2021/09/02 03:22:37;;;;;;;9.20;3.65;;;;;;;;;;5114049;28;20026;-69
2021/09/02 03:25:03;;;;;;;7.40;3.45;;;;;;;;;;5113594;28;20488;-69
2021/09/02 03:27:29;;;;;;;3.83;3.42;;;;;;;;;;5113884;28;20032;-69
2021/09/02 03:29:55;;;;;;;3.92;3.55;;;;;;;;;;5113450;28;20034;-69
2021/09/02 03:32:21;;;;;;;3.85;3.35;;;;;;;;;;5113860;28;20034;-70
2021/09/02 03:34:47;;;;;;;4.32;3.60;;;;;;;;;;5114038;28;20102;-70
2021/09/02 03:37:12;;;;;;;3.80;3.50;;;;;;;;;;5113757;28;20449;-70
2021/09/02 03:39:38;;;;;;;3.80;3.42;;;;;;;;;;5113655;28;20104;-70
2021/09/02 03:42:04;;;;;;;3.80;3.13;;;;;;;;;;5113497;28;20020;-70
2021/09/02 03:44:29;;;;;;;3.53;3.20;;;;;;;;;;5113296;28;20530;-70
2021/09/02 03:46:55;;;;;;;3.80;2.95;;;;;;;;;;5116191;28;20097;-71
2021/09/02 03:49:20;;;;;;;3.97;2.85;;;;;;;;;;5117642;28;20023;-71
2021/09/02 03:51:46;;;;;;;3.22;2.92;;;;;;;;;;5117648;28;20042;-71
2021/09/02 03:54:11;;;;;;;3.38;2.92;;;;;;;;;;5117840;28;20019;-70
2021/09/02 03:56:36;;;;;;;3.75;3.20;;;;;;;;;;5117745;28;20388;-69
2021/09/02 03:59:02;;;;;;;5.38;2.97;;;;;;;;;;5117194;28;20023;-69
2021/09/02 04:01:27;;;;;;;4.50;3.05;;;;;;;;;;5117129;28;20069;-69
2021/09/02 04:03:53;;;;;;;4.40;2.90;;;;;;;;;;5116799;28;20051;-70
2021/09/02 04:06:20;;;;;;;3.58;3.28;;;;;;;;;;5117499;28;20043;-70
2021/09/02 04:08:47;;;;;;;4.25;3.20;;;;;;;;;;5117299;28;20073;-63
2021/09/02 04:11:13;;;;;;;3.95;3.35;;;;;;;;;;5117046;28;20052;-63
2021/09/02 04:13:39;;;;;;;3.20;2.90;;;;;;;;;;5116728;28;20413;-63
2021/09/02 04:16:04;;;;;;;3.63;3.33;;;;;;;;;;5116830;28;20035;-70
2021/09/02 04:18:30;;;;;;;4.50;3.35;;;;;;;;;;5116788;28;20023;-69
2021/09/02 04:20:57;;;;;;;5.10;3.08;;;;;;;;;;5113575;28;20374;-69
2021/09/02 04:23:22;;;;;;;5.55;3.15;;;;;;;;;;5116739;28;20016;-70
2021/09/02 04:25:48;;;;;;;4.32;2.53;;;;;;;;;;5116682;28;20538;-70
2021/09/02 04:28:13;;;;;;;3.95;3.47;;;;;;;;;;5116897;28;20023;-69
2021/09/02 04:30:39;;;;;;;4.22;3.65;;;;;;;;;;5116932;28;20031;-69
2021/09/02 04:33:04;;;;;;;4.13;3.72;;;;;;;;;;5116816;28;20132;-66
2021/09/02 04:35:31;;;;;;;4.65;3.58;;;;;;;;;;5116040;28;20351;-66
2021/09/02 04:37:56;;;;;;;5.75;3.20;;;;;;;;;;5116590;28;20027;-70
2021/09/02 04:40:22;;;;;;;3.90;3.03;;;;;;;;;;5116367;28;20027;-68
2021/09/02 04:42:47;;;;;;;3.78;3.10;;;;;;;;;;5116504;28;20466;-69
2021/09/02 04:45:13;;;;;;;3.70;2.70;;;;;;;;;;5116179;28;20116;-69
2021/09/02 04:47:39;;;;;;;3.33;2.88;;;;;;;;;;5116438;28;20454;-68
2021/09/02 04:50:06;;;;;;;4.15;2.60;;;;;;;;;;5116509;28;20028;-69
2021/09/02 04:52:31;;;;;;;3.63;3.33;;;;;;;;;;5116359;28;20020;-68
2021/09/02 04:54:57;;;;;;;3.90;3.60;;;;;;;;;;5116062;28;20474;-69
2021/09/02 04:57:22;;;;;;;3.75;3.45;;;;;;;;;;5115753;28;20019;-68
2021/09/02 04:59:48;;;;;;;5.95;3.67;;;;;;;;;;5116045;28;20031;-68
2021/09/02 05:02:14;;;;;;;5.88;3.85;;;;;;;;;;5115920;28;20385;-69
2021/09/02 05:04:40;;;;;;;7.28;4.10;;;;;;;;;;5115376;28;20371;-68
2021/09/02 05:07:05;;;;;;;5.68;4.00;;;;;;;;;;5115772;27;20035;-69
2021/09/02 05:09:31;;;;;;;8.88;4.60;;;;;;;;;;5114574;28;20020;-69
2021/09/02 05:11:56;;;;;;;6.05;4.32;;;;;;;;;;5115802;27;20019;-69
2021/09/02 05:14:22;;;;;;;5.65;4.70;;;;;;;;;;5115609;28;20065;-68
2021/09/02 05:16:47;;;;;;;5.07;4.53;;;;;;;;;;5115508;28;20504;-63
2021/09/02 05:19:13;;;;;;;6.78;4.53;;;;;;;;;;5115546;28;20481;-63
2021/09/02 05:21:38;;;;;;;4.88;4.30;;;;;;;;;;5115706;28;20023;-69
2021/09/02 05:24:04;;;;;;;5.72;3.83;;;;;;;;;;5115613;28;20023;-68
2021/09/02 05:26:29;;;;;;;6.60;4.50;;;;;;;;;;5115406;28;20023;-68
2021/09/02 05:28:55;;;;;;;6.07;4.82;;;;;;;;;;5115586;28;20106;-68
2021/09/02 05:31:21;;;;;;;9.93;5.60;;;;;;;;;;5114352;28;20531;-68
2021/09/02 05:33:47;;;;;;;10.38;6.03;;;;;;;;;;5115162;28;20053;-68
2021/09/02 05:36:12;;;;;;;10.25;6.18;;;;;;;;;;5115170;28;20474;-69
2021/09/02 05:38:38;;;;;;;7.97;5.65;;;;;;;;;;5115252;28;20031;-69
2021/09/02 05:41:03;;;;;;;12.20;7.28;;;;;;;;;;5115491;28;20362;-70
2021/09/02 05:43:29;;;;;;;11.25;6.47;;;;;;;;;;5115601;28;20120;-69
2021/09/02 05:45:54;;;;;;;9.05;7.53;;;;;;;;;;5115265;28;20016;-69
2021/09/02 05:48:20;;;;;;;10.40;7.25;;;;;;;;;;5115305;28;20027;-69
2021/09/02 05:50:45;;;;;;;8.88;6.07;;;;;;;;;;5114946;28;20463;-69
2021/09/02 05:53:11;;;;;;;9.10;6.63;;;;;;;;;;5114898;28;20023;-69
2021/09/02 05:55:37;;;;;;;8.75;6.93;;;;;;;;;;5114958;28;20019;-69
2021/09/02 05:58:03;;;;;;;12.93;7.80;;;;;;;;;;5114851;28;20043;-69
2021/09/02 06:00:29;;;;;;;11.23;7.93;;;;;;;;;;5115034;28;20020;-69
2021/09/02 06:02:54;;;;;;;9.82;6.15;;;;;;;;;;5114861;28;20034;-68
2021/09/02 06:05:19;;;;;;;8.30;6.47;;;;;;;;;;5114848;28;20042;-68
2021/09/02 06:07:45;;;;;;;6.07;5.43;;;;;;;;;;5114570;28;20030;-69
2021/09/02 06:10:11;;;;;;;8.52;5.47;;;;;;;;;;5114316;28;20024;-69
2021/09/02 06:12:36;;;;;;;7.38;5.90;;;;;;;;;;5114634;28;20080;-69
2021/09/02 06:15:03;;;;;;;6.00;5.18;;;;;;;;;;5113394;28;20034;-69
2021/09/02 06:17:29;;;;;;;6.75;5.63;;;;;;;;;;5113458;28;20398;-69
2021/09/02 06:19:55;;;;;;;7.10;5.55;;;;;;;;;;5113465;28;20039;-69
2021/09/02 06:22:20;;;;;;;8.20;5.57;;;;;;;;;;5113726;28;20066;-69
2021/09/02 06:24:46;;;;;;;7.25;5.15;;;;;;;;;;5113214;28;20070;-69
2021/09/02 06:27:11;;;;;;;8.60;5.80;;;;;;;;;;5112277;28;20033;-69
2021/09/02 06:29:36;;;;;;;9.18;6.53;;;;;;;;;;5112380;28;20373;-69
2021/09/02 06:32:02;;;;;;;12.38;6.30;;;;;;;;;;5114014;28;20023;-70
2021/09/02 06:34:27;;;;;;;8.30;6.05;;;;;;;;;;5112770;28;20068;-69
2021/09/02 06:36:53;;;;;;;6.40;4.85;;;;;;;;;;5113704;28;20032;-69
2021/09/02 06:39:18;;;;;;;5.43;4.78;;;;;;;;;;5114178;28;20035;-69
2021/09/02 06:41:44;;;;;;;6.18;5.25;;;;;;;;;;5114258;28;20028;-69
2021/09/02 06:44:10;;;;;;;7.72;4.60;;;;;;;;;;5113484;28;20027;-69
2021/09/02 06:46:36;;;;;;;7.20;4.20;;;;;;;;;;5114139;28;20061;-69
2021/09/02 06:49:01;;;;;;;4.50;4.10;;;;;;;;;;5114005;28;20047;-69
2021/09/02 06:51:27;;;;;;;8.00;4.97;;;;;;;;;;5113902;28;20020;-69
2021/09/02 06:53:52;;;;;;;6.53;4.47;;;;;;;;;;5113824;28;20028;-69
2021/09/02 06:56:18;;;;;;;7.25;4.65;;;;;;;;;;5112466;28;20027;-69
2021/09/02 06:58:44;;;;;;;5.68;4.30;;;;;;;;;;5113674;28;20031;-69
2021/09/02 07:01:13;;;;;;;4.55;3.80;;;;;;;;;;5113669;28;20096;-69
2021/09/02 07:03:38;;;;;;;7.90;4.47;;;;;;;;;;5112062;28;20043;-69
2021/09/02 07:06:04;;;;;;;8.70;4.38;;;;;;;;;;5113458;28;20377;-69
2021/09/02 07:08:29;;;;;;;6.25;3.95;;;;;;;;;;5113543;28;20028;-69
2021/09/02 07:10:54;;;;;;;6.05;3.95;;;;;;;;;;5113577;28;20512;-69
2021/09/02 07:13:20;;;;;;;5.10;4.25;;;;;;;;;;5113556;28;20019;-69
2021/09/02 07:15:45;;;;;;;4.70;4.25;;;;;;;;;;5113527;28;20023;-69
2021/09/02 07:18:11;;;;;;;6.53;4.45;;;;;;;;;;5113531;28;20413;-69
2021/09/02 07:20:36;;;;;;;4.68;4.20;;;;;;;;;;5115825;28;20069;-69
2021/09/02 07:23:02;;;;;;;6.78;3.53;;;;;;;;;;5117816;28;20008;-69
2021/09/02 07:25:27;;;;;;;5.57;4.13;;;;;;;;;;5117566;28;20027;-69
2021/09/02 07:27:52;;;;;;;4.53;3.38;;;;;;;;;;5117653;28;20542;-69
2021/09/02 07:30:18;;;;;;;4.97;3.58;;;;;;;;;;5117735;27;20485;-69
2021/09/02 07:32:43;;;;;;;5.55;3.72;;;;;;;;;;5117533;28;20051;-69
2021/09/02 07:35:09;;;;;;;4.75;3.55;;;;;;;;;;5117453;27;20024;-69
2021/09/02 07:37:35;;;;;;;74.65;17.25;;;;;;;;;;5117255;27;20390;-69
2021/09/02 07:40:00;;;;;;;19.75;5.72;;;;;;;;;;5117414;28;20437;-69
2021/09/02 07:42:26;;;;;;;31.70;8.48;;;;;;;;;;5116360;28;20031;-69
2021/09/02 07:44:51;;;;;;;6.50;3.85;;;;;;;;;;5117383;28;20019;-69
2021/09/02 07:47:17;;;;;;;4.03;3.30;;;;;;;;;;5117412;28;20008;-69
2021/09/02 07:49:42;;;;;;;11.02;4.10;;;;;;;;;;5117197;28;20110;-69
2021/09/02 07:52:10;;;;;;;3.95;3.58;;;;;;;;;;5117192;28;20449;-69
2021/09/02 07:54:36;;;;;;;4.47;3.00;;;;;;;;;;5117248;28;20031;-69
2021/09/02 07:57:02;;;;;;;3.75;3.22;;;;;;;;;;5117159;28;20031;-69
2021/09/02 07:59:27;;;;;;;4.90;2.88;;;;;;;;;;5116957;28;20490;-69
2021/09/02 08:01:53;;;;;;;6.53;3.47;;;;;;;;;;5117600;28;20019;-68
2021/09/02 08:04:19;;;;;;;4.38;2.80;;;;;;;;;;5116774;28;20039;-68
2021/09/02 08:06:44;;;;;;;34.50;9.40;;;;;;;;;;5117139;28;20020;-68
2021/09/02 08:09:11;;;;;;;6.18;3.47;;;;;;;;;;5116935;28;20027;-68
2021/09/02 08:11:36;;;;;;;21.13;7.03;;;;;;;;;;5116919;28;20018;-68
2021/09/02 08:14:02;;;;;;;5.35;3.25;;;;;;;;;;5117116;28;20032;-69
2021/09/02 08:16:27;;;;;;;3.65;3.33;;;;;;;;;;5116840;28;20019;-69
2021/09/02 08:18:53;;;;;;;34.13;10.45;;;;;;;;;;5116943;28;20031;-69
2021/09/02 08:21:19;;;;;;;5.75;3.42;;;;;;;;;;5117014;28;20100;-69
2021/09/02 08:23:44;;;;;;;14.65;5.50;;;;;;;;;;5116683;28;20031;-69
2021/09/02 08:26:10;;;;;;;5.25;3.45;;;;;;;;;;5116709;28;20077;-69
2021/09/02 08:28:35;;;;;;;3.55;2.70;;;;;;;;;;5116803;28;20047;-69
2021/09/02 08:31:01;;;;;;;82.03;15.18;;;;;;;;;;5116324;28;20027;-69
2021/09/02 08:33:26;;;;;;;14.75;4.57;;;;;;;;;;5116144;28;20111;-69
2021/09/02 08:35:52;;;;;;;3.75;2.90;;;;;;;;;;5116328;28;20058;-69
2021/09/02 08:38:18;;;;;;;8.27;3.97;;;;;;;;;;5116563;28;20031;-69
2021/09/02 08:40:44;;;;;;;4.03;2.75;;;;;;;;;;5116416;28;20496;-63
2021/09/02 08:43:09;;;;;;;11.57;4.68;;;;;;;;;;5115630;28;20023;-69
2021/09/02 08:45:35;;;;;;;2.50;2.30;;;;;;;;;;5116492;27;20106;-69
2021/09/02 08:48:00;;;;;;;18.10;6.30;;;;;;;;;;5116596;28;20073;-69
2021/09/02 08:50:29;;;;;;;4.50;2.72;;;;;;;;;;5116717;28;20027;-69
2021/09/02 08:52:55;;;;;;;4.28;2.60;;;;;;;;;;5116435;28;20446;-69
2021/09/02 08:55:21;;;;;;;3.28;2.47;;;;;;;;;;5116076;28;20038;-69
2021/09/02 08:57:47;;;;;;;3.88;2.80;;;;;;;;;;5115888;27;20477;-70
2021/09/02 09:00:13;;;;;;;3.15;2.10;;;;;;;;;;5115974;28;20026;-70
2021/09/02 09:02:41;;;;;;;3.67;2.53;;;;;;;;;;5116223;28;20031;-69
2021/09/02 09:05:08;;;;;;;2.88;2.47;;;;;;;;;;5116179;28;20039;-69
2021/09/02 09:07:34;;;;;;;2.88;2.55;;;;;;;;;;5116102;28;20063;-69
2021/09/02 09:09:59;;;;;;;2.80;2.60;;;;;;;;;;5116213;28;20101;-69
2021/09/02 09:12:32;;;;;;;2.50;2.20;;;;;;;;;;5116215;28;20019;-69
2021/09/02 09:14:57;;;;;;;3.17;2.17;;;;;;;;;;5116142;28;20031;-69
2021/09/02 09:17:24;;;;;;;2.35;2.15;;;;;;;;;;5115871;28;20022;-69
2021/09/02 09:19:50;;;;;;;2.72;2.30;;;;;;;;;;5115570;28;20068;-69
2021/09/02 09:22:16;;;;;;;4.78;2.78;;;;;;;;;;5114486;28;20465;-69
2021/09/02 09:24:41;;;;;;;2.80;2.15;;;;;;;;;;5115645;28;20059;-69
2021/09/02 09:27:07;;;;;;;2.30;2.13;;;;;;;;;;5115680;28;20054;-68
2021/09/02 09:29:34;;;;;;;2.50;2.30;;;;;;;;;;5115373;28;20031;-68
2021/09/02 09:32:16;;;;;;;2.72;2.20;;;;;;;;;;5115467;28;20019;-68
2021/09/02 09:34:52;;;;;;;2.50;2.30;;;;;;;;;;5115388;28;20389;-68
2021/09/02 09:37:19;;;;;;;3.38;2.80;;;;;;;;;;5115097;28;20065;-68
2021/09/02 09:39:45;;;;;;;3.45;2.17;;;;;;;;;;5115456;28;20054;-68
2021/09/02 09:42:11;;;;;;;2.22;2.03;;;;;;;;;;5115394;28;20046;-68
2021/09/02 09:44:38;;;;;;;2.72;2.10;;;;;;;;;;5113930;28;20073;-68
2021/09/02 09:47:30;;;;;;;2.40;2.20;;;;;;;;;;5114966;28;20023;-68
2021/09/02 09:49:56;;;;;;;2.70;2.17;;;;;;;;;;5112488;28;20071;-68
2021/09/02 09:52:22;;;;;;;2.63;2.42;;;;;;;;;;5115229;28;20026;-68
2021/09/02 09:54:48;;;;;;;4.00;2.50;;;;;;;;;;5114862;28;20024;-68
2021/09/02 09:57:14;;;;;;;2.67;2.47;;;;;;;;;;5114937;28;20019;-69
2021/09/02 09:59:43;;;;;;;2.08;1.98;;;;;;;;;;5114745;28;20031;-68
2021/09/02 10:02:08;;;;;;;2.60;2.40;;;;;;;;;;5113753;28;20044;-63
2021/09/02 10:04:37;;;;;;;2.17;1.98;;;;;;;;;;5114382;28;20517;-63
2021/09/02 10:07:06;;;;;;;2.17;1.98;;;;;;;;;;5114968;28;20023;-63
2021/09/02 10:09:32;;;;;;;12.55;3.42;;;;;;;;;;5114527;28;20022;-63
2021/09/02 10:11:59;;;;;;;12.30;3.50;;;;;;;;;;5114493;28;20042;-64
2021/09/02 10:14:24;;;;;;;4.40;2.20;;;;;;;;;;5114513;28;20042;-64
2021/09/02 10:16:50;;;;;;;3.83;2.03;;;;;;;;;;5113654;28;20466;-64
2021/09/02 10:19:15;;;;;;;1.77;1.67;;;;;;;;;;5113471;28;20024;-64
2021/09/02 10:21:41;;;;;;;2.63;2.05;;;;;;;;;;5113451;28;20032;-64
2021/09/02 10:24:25;;;;;;;3.22;1.50;;;;;;;;;;5113259;28;20016;-64
2021/09/02 10:26:50;;;;;;;1.45;1.35;;;;;;;;;;5112429;28;20070;-64
2021/09/02 10:29:35;;;;;;;1.92;1.83;;;;;;;;;;5112184;28;20097;-64
2021/09/02 10:32:20;;;;;;;2.47;1.67;;;;;;;;;;5112098;28;20024;-64
2021/09/02 10:34:45;;;;;;;1.55;1.45;;;;;;;;;;5112723;28;20032;-64
2021/09/02 10:37:11;;;;;;;1.88;1.75;;;;;;;;;;5113931;28;20467;-64
2021/09/02 10:39:43;;;;;;;2.25;1.73;;;;;;;;;;5114081;27;20039;-64
2021/09/02 10:42:09;;;;;;;2.83;1.77;;;;;;;;;;5114061;28;20053;-64
2021/09/02 10:44:48;;;;;;;2.30;1.80;;;;;;;;;;5113868;28;20023;-64
2021/09/02 10:47:18;;;;;;;2.17;1.80;;;;;;;;;;5114113;28;20465;-64
2021/09/02 10:49:58;;;;;;;2.05;1.67;;;;;;;;;;5113815;28;20028;-64
2021/09/02 10:52:25;;;;;;;1.88;1.70;;;;;;;;;;5113860;28;20388;-64
2021/09/02 10:54:50;;;;;;;2.40;1.52;;;;;;;;;;5113613;28;20085;-64
2021/09/02 10:57:16;;;;;;;2.85;2.17;;;;;;;;;;5113797;28;20470;-64
2021/09/02 10:59:41;;;;;;;2.83;1.80;;;;;;;;;;5113757;28;20047;-64
2021/09/02 11:02:08;;;;;;;2.40;1.85;;;;;;;;;;5113665;28;20024;-64
2021/09/02 11:04:34;;;;;;;2.00;1.83;;;;;;;;;;5113329;28;20034;-64
2021/09/02 11:07:01;;;;;;;1.63;1.52;;;;;;;;;;5113647;28;20047;-64
2021/09/02 11:09:31;;;;;;;2.97;2.22;;;;;;;;;;5113722;28;20438;-64
2021/09/02 11:11:56;;;;;;;3.05;1.90;;;;;;;;;;5113717;28;20069;-64
2021/09/02 11:14:22;;;;;;;1.58;1.48;;;;;;;;;;5113634;28;20032;-64
2021/09/02 11:16:47;;;;;;;2.42;1.80;;;;;;;;;;5113677;28;20099;-64
2021/09/02 11:19:13;;;;;;;2.05;1.75;;;;;;;;;;5113694;28;20061;-64
2021/09/02 11:21:38;;;;;;;2.45;1.80;;;;;;;;;;5113723;28;20109;-64
2021/09/02 11:24:06;;;;;;;1.90;1.70;;;;;;;;;;5113512;28;20031;-64
2021/09/02 11:26:37;;;;;;;2.10;1.90;;;;;;;;;;5113655;28;20015;-64
2021/09/02 11:29:02;;;;;;;;;;;;;;;;;;5114216;28;20034;-63
2021/09/02 11:31:28;;;;;;;2.17;1.60;;;;;;;;;;5113694;28;20271;-64
2021/09/02 11:33:55;;;;;;;2.75;1.67;;;;;;;;;;5114069;28;20028;-64
2021/09/02 11:36:20;;;;;;;1.45;1.35;;;;;;;;;;5113475;28;20110;-63
2021/09/02 11:38:47;;;;;;;1.60;1.50;;;;;;;;;;5113478;28;20470;-64
2021/09/02 11:41:23;;;;;;;1.90;1.80;;;;;;;;;;5113553;28;20526;-64
2021/09/02 11:43:51;;;;;;;1.83;1.70;;;;;;;;;;5113657;28;20086;-64
2021/09/02 11:46:17;;;;;;;1.88;1.77;;;;;;;;;;5113357;28;20008;-64
2021/09/02 11:48:49;;;;;;;2.40;1.70;;;;;;;;;;5113120;28;20440;-64
2021/09/02 11:51:33;;;;;;;2.67;2.42;;;;;;;;;;5113414;28;20032;-67
2021/09/02 11:54:12;;;;;;;2.25;2.13;;;;;;;;;;5113305;28;20033;-67
2021/09/02 11:56:40;;;;;;;4.28;2.03;;;;;;;;;;5110997;28;20024;-67
2021/09/02 11:59:07;;;;;;;1.95;1.80;;;;;;;;;;5112774;28;20034;-67
2021/09/02 12:01:33;;;;;;;2.33;2.20;;;;;;;;;;5113187;28;20118;-69
2021/09/02 12:03:59;;;;;;;2.80;2.47;;;;;;;;;;5112500;28;20115;-62
2021/09/02 12:06:26;;;;;;;3.33;2.92;;;;;;;;;;5113790;28;20078;-64
2021/09/02 12:08:51;;;;;;;2.45;1.98;;;;;;;;;;5116886;27;20047;-64
2021/09/02 12:11:20;;;;;;;3.50;2.20;;;;;;;;;;5116908;28;20062;-64
2021/09/02 12:13:46;;;;;;;1.77;1.67;;;;;;;;;;5116766;28;20026;-64
2021/09/02 12:16:13;;;;;;;2.05;1.85;;;;;;;;;;5116644;28;20473;-64
2021/09/02 12:18:40;;;;;;;2.55;2.38;;;;;;;;;;5116754;28;20100;-64
2021/09/02 12:21:07;;;;;;;2.50;2.20;;;;;;;;;;5116717;28;20027;-64
2021/09/02 12:23:40;;;;;;;2.50;2.30;;;;;;;;;;5116519;28;20072;-64
2021/09/02 12:26:06;;;;;;;3.65;2.60;;;;;;;;;;5116570;28;20115;-64
2021/09/02 12:28:36;;;;;;;3.67;2.22;;;;;;;;;;5116427;28;20008;-64
2021/09/02 12:31:17;;;;;;;2.70;2.50;;;;;;;;;;5116575;28;20424;-64
2021/09/02 12:34:01;;;;;;;2.83;2.63;;;;;;;;;;5116568;28;20070;-64
2021/09/02 12:36:27;;;;;;;3.53;2.30;;;;;;;;;;5116385;28;20023;-64
2021/09/02 12:38:53;;;;;;;3.40;2.47;;;;;;;;;;5116377;28;20378;-64
2021/09/02 12:41:18;;;;;;;2.85;2.50;;;;;;;;;;5116295;28;20032;-64
2021/09/02 12:44:20;;;;;;;3.35;2.92;;;;;;;;;;5114993;28;20135;-64
2021/09/02 12:46:48;;;;;;;5.82;2.97;;;;;;;;;;5053392;28;20033;-64
2021/09/02 12:49:14;;;;;;;3.85;2.25;;;;;;;;;;5104338;28;20431;-64
2021/09/02 12:51:39;;;;;;;4.05;3.13;;;;;;;;;;5114864;28;20024;-64
2021/09/02 12:54:04;;;;;;;2.92;2.65;;;;;;;;;;5116106;28;20043;-64
2021/09/02 12:56:37;;;;;;;2.83;2.60;;;;;;;;;;5115932;28;20466;-64
2021/09/02 12:59:03;;;;;;;3.17;2.88;;;;;;;;;;5116003;28;20038;-64
2021/09/02 13:01:29;;;;;;;3.10;2.83;;;;;;;;;;5115885;28;20016;-64
2021/09/02 13:03:57;;;;;;;4.13;3.10;;;;;;;;;;5115259;28;20517;-64
2021/09/02 13:06:23;;;;;;;3.28;3.00;;;;;;;;;;5115913;28;20050;-64
2021/09/02 13:08:48;;;;;;;3.05;2.75;;;;;;;;;;5115735;28;20645;-64
2021/09/02 13:11:13;;;;;;;3.58;2.78;;;;;;;;;;5115673;28;20492;-64
2021/09/02 13:13:39;;;;;;;3.45;2.88;;;;;;;;;;5115558;28;20039;-64
2021/09/02 13:16:04;;;;;;;3.10;2.80;;;;;;;;;;5115705;28;20019;-64
2021/09/02 13:18:30;;;;;;;3.35;2.90;;;;;;;;;;5115308;28;20042;-64
2021/09/02 13:20:55;;;;;;;4.05;2.60;;;;;;;;;;5115630;28;20461;-64
2021/09/02 13:23:21;;;;;;;3.40;3.10;;;;;;;;;;5115367;28;20438;-64
2021/09/02 13:25:50;;;;;;;3.45;3.15;;;;;;;;;;5115298;28;20051;-64
2021/09/02 13:28:16;;;;;;;3.80;3.50;;;;;;;;;;5115547;28;20103;-64
2021/09/02 13:30:41;;;;;;;3.35;3.05;;;;;;;;;;5115268;28;20099;-64
2021/09/02 13:33:07;;;;;;;3.72;3.40;;;;;;;;;;5115329;28;20068;-64
2021/09/02 13:35:32;;;;;;;5.50;4.32;;;;;;;;;;5115366;28;20024;-64
2021/09/02 13:37:58;;;;;;;7.50;4.78;;;;;;;;;;5115110;28;20030;-64
2021/09/02 13:40:23;;;;;;;6.25;4.07;;;;;;;;;;5115123;28;20024;-64
2021/09/02 13:42:48;;;;;;;4.10;3.22;;;;;;;;;;5115053;28;20032;-64
2021/09/02 13:45:14;;;;;;;4.63;3.45;;;;;;;;;;5096792;28;20020;-64
2021/09/02 13:47:39;;;;;;;3.60;3.30;;;;;;;;;;5115231;28;20023;-64
2021/09/02 13:50:05;;;;;;;3.58;3.28;;;;;;;;;;5114855;28;20466;-64
2021/09/02 13:52:36;;;;;;;4.30;3.30;;;;;;;;;;5114927;28;20027;-64
2021/09/02 13:55:03;;;;;;;3.05;2.85;;;;;;;;;;5115059;28;20047;-64
2021/09/02 13:57:28;;;;;;;3.63;3.33;;;;;;;;;;5115268;28;20066;-64
2021/09/02 13:59:54;;;;;;;3.33;3.03;;;;;;;;;;5114967;28;20501;-64
2021/09/02 14:02:19;;;;;;;3.63;3.03;;;;;;;;;;5115052;28;20020;-64
2021/09/02 14:04:45;;;;;;;2.78;2.55;;;;;;;;;;5114372;28;20135;-64
2021/09/02 14:07:10;;;;;;;3.10;2.90;;;;;;;;;;5114982;28;20028;-64
2021/09/02 14:09:36;;;;;;;2.83;2.63;;;;;;;;;;5114549;28;20032;-64
2021/09/02 14:12:01;;;;;;;3.25;2.97;;;;;;;;;;5114625;28;20016;-64
2021/09/02 14:14:27;;;;;;;3.38;3.10;;;;;;;;;;5114686;28;20108;-64
2021/09/02 14:16:52;;;;;;;3.47;3.17;;;;;;;;;;5115006;28;20024;-64
2021/09/02 14:19:18;;;;;;;3.45;3.15;;;;;;;;;;5114703;28;20070;-64
2021/09/02 14:21:43;;;;;;;3.25;3.00;;;;;;;;;;5113918;28;20019;-65
2021/09/02 14:24:09;;;;;;;4.00;3.55;;;;;;;;;;5113017;28;20071;-64
2021/09/02 14:26:34;;;;;;;3.70;3.28;;;;;;;;;;5112111;28;20024;-65
2021/09/02 14:28:59;;;;;;;3.92;3.63;;;;;;;;;;5113084;28;20072;-65
2021/09/02 14:31:25;;;;;;;4.50;3.72;;;;;;;;;;5113364;28;20043;-64
2021/09/02 14:33:50;;;;;;;3.97;3.10;;;;;;;;;;5113389;28;20076;-64
2021/09/02 14:40:21;;;;;;;3.05;2.83;;;;;;;;;;5114839;28;20030;-64
2021/09/02 14:46:22;;;;;;;4.28;3.33;;;;;;;;;;5114720;28;20100;-62